sensor_id;sensor_type;location;lat;lon;timestamp;P1;durP1;ratioP1;P2;durP2;ratioP2
6693;SDS011;3384;42.628;23.380;2023-04-25T00:00:30;3.80;;;3.70;;
6693;SDS011;3384;42.628;23.380;2023-04-25T00:02:56;3.67;;;3.50;;
6693;SDS011;3384;42.628;23.380;2023-04-25T00:05:25;6.33;;;5.70;;
6693;SDS011;3384;42.628;23.380;2023-04-25T00:07:51;3.30;;;3.20;;
6693;SDS011;3384;42.628;23.380;2023-04-25T00:10:20;4.90;;;4.60;;
6693;SDS011;3384;42.628;23.380;2023-04-25T00:12:46;3.70;;;3.30;;
6693;SDS011;3384;42.628;23.380;2023-04-25T00:15:13;3.63;;;3.53;;
6693;SDS011;3384;42.628;23.380;2023-04-25T00:17:41;3.57;;;3.37;;
6693;SDS011;3384;42.628;23.380;2023-04-25T00:20:08;4.10;;;3.77;;
6693;SDS011;3384;42.628;23.380;2023-04-25T00:22:35;3.83;;;3.53;;
6693;SDS011;3384;42.628;23.380;2023-04-25T00:25:02;4.10;;;3.90;;
6693;SDS011;3384;42.628;23.380;2023-04-25T00:27:30;4.50;;;4.30;;
6693;SDS011;3384;42.628;23.380;2023-04-25T00:29:57;5.00;;;4.80;;
6693;SDS011;3384;42.628;23.380;2023-04-25T00:32:24;4.67;;;4.47;;
6693;SDS011;3384;42.628;23.380;2023-04-25T00:34:50;4.70;;;4.60;;
6693;SDS011;3384;42.628;23.380;2023-04-25T00:37:17;7.40;;;6.77;;
6693;SDS011;3384;42.628;23.380;2023-04-25T00:39:43;5.30;;;5.20;;
6693;SDS011;3384;42.628;23.380;2023-04-25T00:42:10;6.00;;;5.80;;
6693;SDS011;3384;42.628;23.380;2023-04-25T00:44:38;6.40;;;6.07;;
6693;SDS011;3384;42.628;23.380;2023-04-25T00:47:06;8.03;;;7.33;;
6693;SDS011;3384;42.628;23.380;2023-04-25T00:49:33;7.57;;;7.10;;
6693;SDS011;3384;42.628;23.380;2023-04-25T00:52:00;6.63;;;6.33;;
6693;SDS011;3384;42.628;23.380;2023-04-25T00:54:26;6.50;;;6.17;;
6693;SDS011;3384;42.628;23.380;2023-04-25T00:56:53;6.90;;;6.40;;
6693;SDS011;3384;42.628;23.380;2023-04-25T00:59:20;6.50;;;6.10;;
6693;SDS011;3384;42.628;23.380;2023-04-25T01:01:48;5.90;;;5.70;;
6693;SDS011;3384;42.628;23.380;2023-04-25T01:04:14;7.30;;;6.83;;
6693;SDS011;3384;42.628;23.380;2023-04-25T01:06:41;7.57;;;7.10;;
6693;SDS011;3384;42.628;23.380;2023-04-25T01:09:07;6.80;;;6.40;;
6693;SDS011;3384;42.628;23.380;2023-04-25T01:11:34;6.73;;;6.43;;
6693;SDS011;3384;42.628;23.380;2023-04-25T01:14:01;4.73;;;4.57;;
6693;SDS011;3384;42.628;23.380;2023-04-25T01:16:31;4.60;;;4.50;;
6693;SDS011;3384;42.628;23.380;2023-04-25T01:19:05;5.47;;;5.27;;
6693;SDS011;3384;42.628;23.380;2023-04-25T01:21:53;6.20;;;5.90;;
6693;SDS011;3384;42.628;23.380;2023-04-25T01:24:20;5.70;;;5.50;;
6693;SDS011;3384;42.628;23.380;2023-04-25T01:26:46;6.17;;;5.87;;
6693;SDS011;3384;42.628;23.380;2023-04-25T01:29:16;7.03;;;6.63;;
6693;SDS011;3384;42.628;23.380;2023-04-25T01:31:43;5.37;;;5.13;;
6693;SDS011;3384;42.628;23.380;2023-04-25T01:34:12;6.97;;;6.57;;
6693;SDS011;3384;42.628;23.380;2023-04-25T01:36:39;4.67;;;4.37;;
6693;SDS011;3384;42.628;23.380;2023-04-25T01:39:07;3.90;;;3.80;;
6693;SDS011;3384;42.628;23.380;2023-04-25T01:41:34;4.73;;;3.73;;
6693;SDS011;3384;42.628;23.380;2023-04-25T01:44:01;4.37;;;4.27;;
6693;SDS011;3384;42.628;23.380;2023-04-25T01:46:27;5.13;;;4.77;;
6693;SDS011;3384;42.628;23.380;2023-04-25T01:48:54;5.00;;;4.03;;
6693;SDS011;3384;42.628;23.380;2023-04-25T01:51:20;4.03;;;3.93;;
6693;SDS011;3384;42.628;23.380;2023-04-25T01:53:47;3.13;;;3.03;;
6693;SDS011;3384;42.628;23.380;2023-04-25T01:56:15;4.20;;;3.90;;
6693;SDS011;3384;42.628;23.380;2023-04-25T01:58:42;3.90;;;3.80;;
6693;SDS011;3384;42.628;23.380;2023-04-25T02:01:08;3.77;;;3.33;;
6693;SDS011;3384;42.628;23.380;2023-04-25T02:03:35;3.87;;;3.37;;
6693;SDS011;3384;42.628;23.380;2023-04-25T02:06:02;4.10;;;3.80;;
6693;SDS011;3384;42.628;23.380;2023-04-25T02:08:29;3.90;;;3.80;;
6693;SDS011;3384;42.628;23.380;2023-04-25T02:10:56;4.70;;;4.40;;
6693;SDS011;3384;42.628;23.380;2023-04-25T02:13:24;4.37;;;4.20;;
6693;SDS011;3384;42.628;23.380;2023-04-25T02:15:51;5.80;;;4.50;;
6693;SDS011;3384;42.628;23.380;2023-04-25T02:18:17;4.37;;;4.07;;
6693;SDS011;3384;42.628;23.380;2023-04-25T02:20:44;4.70;;;4.60;;
6693;SDS011;3384;42.628;23.380;2023-04-25T02:23:11;5.70;;;5.50;;
6693;SDS011;3384;42.628;23.380;2023-04-25T02:25:40;4.67;;;4.47;;
6693;SDS011;3384;42.628;23.380;2023-04-25T02:28:07;5.37;;;5.20;;
6693;SDS011;3384;42.628;23.380;2023-04-25T02:30:34;5.30;;;5.10;;
6693;SDS011;3384;42.628;23.380;2023-04-25T02:33:01;5.47;;;5.27;;
6693;SDS011;3384;42.628;23.380;2023-04-25T02:35:28;5.17;;;4.97;;
6693;SDS011;3384;42.628;23.380;2023-04-25T02:37:54;5.30;;;4.90;;
6693;SDS011;3384;42.628;23.380;2023-04-25T02:40:21;5.50;;;5.00;;
6693;SDS011;3384;42.628;23.380;2023-04-25T02:42:47;6.90;;;6.60;;
6693;SDS011;3384;42.628;23.380;2023-04-25T02:45:14;6.30;;;5.90;;
6693;SDS011;3384;42.628;23.380;2023-04-25T02:47:42;7.33;;;7.03;;
6693;SDS011;3384;42.628;23.380;2023-04-25T02:50:09;7.03;;;6.67;;
6693;SDS011;3384;42.628;23.380;2023-04-25T02:52:35;7.40;;;6.70;;
6693;SDS011;3384;42.628;23.380;2023-04-25T02:55:02;8.30;;;7.83;;
6693;SDS011;3384;42.628;23.380;2023-04-25T02:57:29;6.07;;;5.80;;
6693;SDS011;3384;42.628;23.380;2023-04-25T02:59:55;6.97;;;6.67;;
6693;SDS011;3384;42.628;23.380;2023-04-25T03:02:22;6.00;;;5.70;;
6693;SDS011;3384;42.628;23.380;2023-04-25T03:04:50;6.73;;;6.20;;
6693;SDS011;3384;42.628;23.380;2023-04-25T03:07:16;6.17;;;5.87;;
6693;SDS011;3384;42.628;23.380;2023-04-25T03:09:43;5.70;;;5.50;;
6693;SDS011;3384;42.628;23.380;2023-04-25T03:12:10;6.63;;;6.23;;
6693;SDS011;3384;42.628;23.380;2023-04-25T03:14:36;6.20;;;5.90;;
6693;SDS011;3384;42.628;23.380;2023-04-25T03:17:03;7.87;;;7.30;;
6693;SDS011;3384;42.628;23.380;2023-04-25T03:19:29;6.73;;;6.37;;
6693;SDS011;3384;42.628;23.380;2023-04-25T03:21:57;8.40;;;7.87;;
6693;SDS011;3384;42.628;23.380;2023-04-25T03:24:24;7.20;;;6.80;;
6693;SDS011;3384;42.628;23.380;2023-04-25T03:26:51;8.10;;;7.60;;
6693;SDS011;3384;42.628;23.380;2023-04-25T03:29:17;7.73;;;7.30;;
6693;SDS011;3384;42.628;23.380;2023-04-25T03:31:44;7.73;;;7.23;;
6693;SDS011;3384;42.628;23.380;2023-04-25T03:34:11;7.73;;;7.07;;
6693;SDS011;3384;42.628;23.380;2023-04-25T03:36:39;7.00;;;6.40;;
6693;SDS011;3384;42.628;23.380;2023-04-25T03:39:07;8.90;;;7.73;;
6693;SDS011;3384;42.628;23.380;2023-04-25T03:41:34;8.90;;;8.10;;
6693;SDS011;3384;42.628;23.380;2023-04-25T03:44:00;9.53;;;8.67;;
6693;SDS011;3384;42.628;23.380;2023-04-25T03:46:27;9.93;;;9.07;;
6693;SDS011;3384;42.628;23.380;2023-04-25T03:48:53;10.20;;;9.20;;
6693;SDS011;3384;42.628;23.380;2023-04-25T03:51:20;11.00;;;9.80;;
6693;SDS011;3384;42.628;23.380;2023-04-25T03:53:47;12.07;;;11.00;;
6693;SDS011;3384;42.628;23.380;2023-04-25T03:56:15;11.83;;;10.83;;
6693;SDS011;3384;42.628;23.380;2023-04-25T03:58:42;10.67;;;9.57;;
6693;SDS011;3384;42.628;23.380;2023-04-25T04:01:08;9.83;;;9.07;;
6693;SDS011;3384;42.628;23.380;2023-04-25T04:03:36;13.83;;;11.93;;
6693;SDS011;3384;42.628;23.380;2023-04-25T04:06:02;11.93;;;10.83;;
6693;SDS011;3384;42.628;23.380;2023-04-25T04:08:30;9.50;;;8.80;;
6693;SDS011;3384;42.628;23.380;2023-04-25T04:10:57;12.53;;;11.43;;
6693;SDS011;3384;42.628;23.380;2023-04-25T04:13:25;10.13;;;9.47;;
6693;SDS011;3384;42.628;23.380;2023-04-25T04:15:52;7.93;;;7.43;;
6693;SDS011;3384;42.628;23.380;2023-04-25T04:18:19;9.17;;;8.40;;
6693;SDS011;3384;42.628;23.380;2023-04-25T04:20:45;10.33;;;9.20;;
6693;SDS011;3384;42.628;23.380;2023-04-25T04:23:12;10.53;;;9.83;;
6693;SDS011;3384;42.628;23.380;2023-04-25T04:25:38;11.87;;;9.90;;
6693;SDS011;3384;42.628;23.380;2023-04-25T04:28:06;11.47;;;10.33;;
6693;SDS011;3384;42.628;23.380;2023-04-25T04:30:34;11.60;;;10.70;;
6693;SDS011;3384;42.628;23.380;2023-04-25T04:33:02;12.67;;;11.40;;
6693;SDS011;3384;42.628;23.380;2023-04-25T04:35:29;14.87;;;12.20;;
6693;SDS011;3384;42.628;23.380;2023-04-25T04:37:56;14.03;;;12.57;;
6693;SDS011;3384;42.628;23.380;2023-04-25T04:40:22;15.83;;;14.23;;
6693;SDS011;3384;42.628;23.380;2023-04-25T04:42:50;20.40;;;14.90;;
6693;SDS011;3384;42.628;23.380;2023-04-25T04:45:18;17.03;;;15.13;;
6693;SDS011;3384;42.628;23.380;2023-04-25T04:47:47;17.53;;;14.50;;
6693;SDS011;3384;42.628;23.380;2023-04-25T04:50:14;17.50;;;15.07;;
6693;SDS011;3384;42.628;23.380;2023-04-25T04:52:41;18.73;;;16.40;;
6693;SDS011;3384;42.628;23.380;2023-04-25T04:55:08;17.67;;;15.50;;
6693;SDS011;3384;42.628;23.380;2023-04-25T04:57:35;15.83;;;14.00;;
6693;SDS011;3384;42.628;23.380;2023-04-25T05:00:04;17.60;;;15.33;;
6693;SDS011;3384;42.628;23.380;2023-04-25T05:02:32;14.67;;;13.23;;
6693;SDS011;3384;42.628;23.380;2023-04-25T05:05:00;14.33;;;12.80;;
6693;SDS011;3384;42.628;23.380;2023-04-25T05:07:26;12.87;;;11.70;;
6693;SDS011;3384;42.628;23.380;2023-04-25T05:09:53;12.20;;;11.20;;
6693;SDS011;3384;42.628;23.380;2023-04-25T05:12:20;12.73;;;11.57;;
6693;SDS011;3384;42.628;23.380;2023-04-25T05:14:46;11.80;;;10.83;;
6693;SDS011;3384;42.628;23.380;2023-04-25T05:17:13;11.93;;;10.23;;
6693;SDS011;3384;42.628;23.380;2023-04-25T05:19:40;9.37;;;8.47;;
6693;SDS011;3384;42.628;23.380;2023-04-25T05:22:09;10.83;;;9.90;;
6693;SDS011;3384;42.628;23.380;2023-04-25T05:24:36;10.53;;;9.50;;
6693;SDS011;3384;42.628;23.380;2023-04-25T05:27:02;14.13;;;9.90;;
6693;SDS011;3384;42.628;23.380;2023-04-25T05:29:30;8.70;;;8.20;;
6693;SDS011;3384;42.628;23.380;2023-04-25T05:31:57;7.73;;;7.23;;
6693;SDS011;3384;42.628;23.380;2023-04-25T05:34:23;10.63;;;7.60;;
6693;SDS011;3384;42.628;23.380;2023-04-25T05:36:50;7.57;;;6.87;;
6693;SDS011;3384;42.628;23.380;2023-04-25T05:39:18;7.33;;;6.87;;
6693;SDS011;3384;42.628;23.380;2023-04-25T05:41:45;8.03;;;7.50;;
6693;SDS011;3384;42.628;23.380;2023-04-25T05:44:11;6.80;;;6.50;;
6693;SDS011;3384;42.628;23.380;2023-04-25T05:46:38;6.70;;;6.37;;
6693;SDS011;3384;42.628;23.380;2023-04-25T05:49:05;8.50;;;7.93;;
6693;SDS011;3384;42.628;23.380;2023-04-25T05:51:32;7.63;;;7.03;;
6693;SDS011;3384;42.628;23.380;2023-04-25T05:53:59;6.23;;;5.83;;
6693;SDS011;3384;42.628;23.380;2023-04-25T05:56:28;7.57;;;7.03;;
6693;SDS011;3384;42.628;23.380;2023-04-25T05:58:55;8.37;;;7.73;;
6693;SDS011;3384;42.628;23.380;2023-04-25T06:01:22;6.97;;;6.57;;
6693;SDS011;3384;42.628;23.380;2023-04-25T06:03:48;9.33;;;8.63;;
6693;SDS011;3384;42.628;23.380;2023-04-25T06:06:16;8.03;;;7.37;;
6693;SDS011;3384;42.628;23.380;2023-04-25T06:08:43;8.00;;;7.43;;
6693;SDS011;3384;42.628;23.380;2023-04-25T06:11:09;8.90;;;7.40;;
6693;SDS011;3384;42.628;23.380;2023-04-25T06:13:38;7.73;;;7.30;;
6693;SDS011;3384;42.628;23.380;2023-04-25T06:16:05;9.07;;;8.20;;
6693;SDS011;3384;42.628;23.380;2023-04-25T06:18:32;9.53;;;8.77;;
6693;SDS011;3384;42.628;23.380;2023-04-25T06:21:02;10.33;;;9.43;;
6693;SDS011;3384;42.628;23.380;2023-04-25T06:23:29;10.77;;;9.87;;
6693;SDS011;3384;42.628;23.380;2023-04-25T06:25:55;10.87;;;9.73;;
6693;SDS011;3384;42.628;23.380;2023-04-25T06:28:22;9.23;;;8.60;;
6693;SDS011;3384;42.628;23.380;2023-04-25T06:30:51;8.73;;;7.43;;
6693;SDS011;3384;42.628;23.380;2023-04-25T06:33:17;9.40;;;8.60;;
6693;SDS011;3384;42.628;23.380;2023-04-25T06:35:44;9.03;;;8.33;;
6693;SDS011;3384;42.628;23.380;2023-04-25T06:38:10;8.87;;;8.17;;
6693;SDS011;3384;42.628;23.380;2023-04-25T06:40:37;9.40;;;8.77;;
6693;SDS011;3384;42.628;23.380;2023-04-25T06:43:04;9.80;;;9.03;;
6693;SDS011;3384;42.628;23.380;2023-04-25T06:45:31;9.30;;;8.40;;
6693;SDS011;3384;42.628;23.380;2023-04-25T06:47:59;12.60;;;9.90;;
6693;SDS011;3384;42.628;23.380;2023-04-25T06:50:25;8.60;;;7.73;;
6693;SDS011;3384;42.628;23.380;2023-04-25T06:52:53;8.40;;;7.63;;
6693;SDS011;3384;42.628;23.380;2023-04-25T06:55:20;8.03;;;7.43;;
6693;SDS011;3384;42.628;23.380;2023-04-25T06:57:46;7.60;;;7.10;;
6693;SDS011;3384;42.628;23.380;2023-04-25T07:00:13;7.67;;;6.80;;
6693;SDS011;3384;42.628;23.380;2023-04-25T07:02:40;8.07;;;7.53;;
6693;SDS011;3384;42.628;23.380;2023-04-25T07:05:10;9.03;;;8.27;;
6693;SDS011;3384;42.628;23.380;2023-04-25T07:07:36;8.30;;;7.70;;
6693;SDS011;3384;42.628;23.380;2023-04-25T07:10:03;8.40;;;7.67;;
6693;SDS011;3384;42.628;23.380;2023-04-25T07:12:30;7.90;;;7.33;;
6693;SDS011;3384;42.628;23.380;2023-04-25T07:14:57;8.80;;;8.20;;
6693;SDS011;3384;42.628;23.380;2023-04-25T07:17:23;8.13;;;7.60;;
6693;SDS011;3384;42.628;23.380;2023-04-25T07:19:50;8.47;;;7.77;;
6693;SDS011;3384;42.628;23.380;2023-04-25T07:22:18;7.50;;;7.10;;
6693;SDS011;3384;42.628;23.380;2023-04-25T07:24:45;8.17;;;7.40;;
6693;SDS011;3384;42.628;23.380;2023-04-25T07:27:13;14.50;;;7.53;;
6693;SDS011;3384;42.628;23.380;2023-04-25T07:29:40;8.03;;;7.43;;
6693;SDS011;3384;42.628;23.380;2023-04-25T07:32:07;11.97;;;10.37;;
6693;SDS011;3384;42.628;23.380;2023-04-25T07:34:35;8.93;;;7.93;;
6693;SDS011;3384;42.628;23.380;2023-04-25T07:37:03;7.10;;;6.70;;
6693;SDS011;3384;42.628;23.380;2023-04-25T07:39:31;7.93;;;7.23;;
6693;SDS011;3384;42.628;23.380;2023-04-25T07:41:58;5.30;;;5.10;;
6693;SDS011;3384;42.628;23.380;2023-04-25T07:44:25;6.20;;;5.90;;
6693;SDS011;3384;42.628;23.380;2023-04-25T07:46:52;10.00;;;6.27;;
6693;SDS011;3384;42.628;23.380;2023-04-25T07:49:18;8.37;;;7.73;;
6693;SDS011;3384;42.628;23.380;2023-04-25T07:51:45;11.90;;;7.90;;
6693;SDS011;3384;42.628;23.380;2023-04-25T07:54:13;7.47;;;6.87;;
6693;SDS011;3384;42.628;23.380;2023-04-25T07:56:41;10.73;;;7.87;;
6693;SDS011;3384;42.628;23.380;2023-04-25T07:59:08;6.60;;;6.30;;
6693;SDS011;3384;42.628;23.380;2023-04-25T08:01:35;5.37;;;5.17;;
6693;SDS011;3384;42.628;23.380;2023-04-25T08:04:02;5.50;;;5.30;;
6693;SDS011;3384;42.628;23.380;2023-04-25T08:06:29;6.40;;;5.97;;
6693;SDS011;3384;42.628;23.380;2023-04-25T08:08:56;5.03;;;4.70;;
6693;SDS011;3384;42.628;23.380;2023-04-25T08:11:23;6.30;;;5.80;;
6693;SDS011;3384;42.628;23.380;2023-04-25T08:13:51;6.60;;;6.10;;
6693;SDS011;3384;42.628;23.380;2023-04-25T08:16:18;5.17;;;5.00;;
6693;SDS011;3384;42.628;23.380;2023-04-25T08:18:44;5.70;;;5.20;;
6693;SDS011;3384;42.628;23.380;2023-04-25T08:21:11;7.50;;;6.20;;
6693;SDS011;3384;42.628;23.380;2023-04-25T08:23:38;6.83;;;6.30;;
6693;SDS011;3384;42.628;23.380;2023-04-25T08:26:05;7.13;;;6.73;;
6693;SDS011;3384;42.628;23.380;2023-04-25T08:28:31;9.00;;;8.30;;
6693;SDS011;3384;42.628;23.380;2023-04-25T08:30:59;6.43;;;5.83;;
6693;SDS011;3384;42.628;23.380;2023-04-25T08:33:26;5.83;;;5.53;;
6693;SDS011;3384;42.628;23.380;2023-04-25T08:35:55;6.77;;;5.80;;
6693;SDS011;3384;42.628;23.380;2023-04-25T08:38:22;6.70;;;6.20;;
6693;SDS011;3384;42.628;23.380;2023-04-25T08:40:49;6.77;;;6.20;;
6693;SDS011;3384;42.628;23.380;2023-04-25T08:43:15;6.87;;;6.20;;
6693;SDS011;3384;42.628;23.380;2023-04-25T08:45:44;5.77;;;5.23;;
6693;SDS011;3384;42.628;23.380;2023-04-25T08:48:13;6.10;;;5.67;;
6693;SDS011;3384;42.628;23.380;2023-04-25T08:50:40;4.80;;;4.00;;
6693;SDS011;3384;42.628;23.380;2023-04-25T08:53:08;3.33;;;3.23;;
6693;SDS011;3384;42.628;23.380;2023-04-25T08:55:36;3.47;;;3.17;;
6693;SDS011;3384;42.628;23.380;2023-04-25T08:58:03;3.73;;;3.40;;
6693;SDS011;3384;42.628;23.380;2023-04-25T09:00:30;5.70;;;2.63;;
6693;SDS011;3384;42.628;23.380;2023-04-25T09:02:57;2.57;;;2.47;;
6693;SDS011;3384;42.628;23.380;2023-04-25T09:05:26;6.60;;;3.97;;
6693;SDS011;3384;42.628;23.380;2023-04-25T09:07:53;2.37;;;2.30;;
6693;SDS011;3384;42.628;23.380;2023-04-25T09:10:21;2.73;;;2.53;;
6693;SDS011;3384;42.628;23.380;2023-04-25T09:13:01;5.43;;;2.47;;
6693;SDS011;3384;42.628;23.380;2023-04-25T09:15:28;5.83;;;5.33;;
6693;SDS011;3384;42.628;23.380;2023-04-25T09:17:55;5.97;;;5.60;;
6693;SDS011;3384;42.628;23.380;2023-04-25T09:20:22;7.60;;;4.70;;
6693;SDS011;3384;42.628;23.380;2023-04-25T09:22:51;5.20;;;5.00;;
6693;SDS011;3384;42.628;23.380;2023-04-25T09:25:26;9.13;;;4.50;;
6693;SDS011;3384;42.628;23.380;2023-04-25T09:27:54;4.60;;;4.30;;
6693;SDS011;3384;42.628;23.380;2023-04-25T09:30:28;10.73;;;3.97;;
6693;SDS011;3384;42.628;23.380;2023-04-25T09:32:56;3.97;;;3.77;;
6693;SDS011;3384;42.628;23.380;2023-04-25T09:35:25;5.00;;;4.60;;
6693;SDS011;3384;42.628;23.380;2023-04-25T09:37:53;5.33;;;4.07;;
6693;SDS011;3384;42.628;23.380;2023-04-25T09:40:20;5.33;;;4.63;;
6693;SDS011;3384;42.628;23.380;2023-04-25T09:42:46;4.50;;;4.40;;
6693;SDS011;3384;42.628;23.380;2023-04-25T09:45:13;6.17;;;4.23;;
6693;SDS011;3384;42.628;23.380;2023-04-25T09:47:40;11.27;;;5.90;;
6693;SDS011;3384;42.628;23.380;2023-04-25T09:50:13;4.93;;;4.67;;
6693;SDS011;3384;42.628;23.380;2023-04-25T09:52:40;5.10;;;4.90;;
6693;SDS011;3384;42.628;23.380;2023-04-25T09:55:08;6.80;;;6.00;;
6693;SDS011;3384;42.628;23.380;2023-04-25T09:57:35;5.07;;;4.63;;
6693;SDS011;3384;42.628;23.380;2023-04-25T10:00:05;9.63;;;8.83;;
6693;SDS011;3384;42.628;23.380;2023-04-25T10:02:37;8.63;;;7.77;;
6693;SDS011;3384;42.628;23.380;2023-04-25T10:05:05;6.80;;;6.40;;
6693;SDS011;3384;42.628;23.380;2023-04-25T10:07:32;4.87;;;4.67;;
6693;SDS011;3384;42.628;23.380;2023-04-25T10:10:00;5.60;;;5.10;;
6693;SDS011;3384;42.628;23.380;2023-04-25T10:12:29;13.67;;;6.03;;
6693;SDS011;3384;42.628;23.380;2023-04-25T10:14:56;5.23;;;4.03;;
6693;SDS011;3384;42.628;23.380;2023-04-25T10:17:23;8.50;;;4.60;;
6693;SDS011;3384;42.628;23.380;2023-04-25T10:19:50;6.63;;;6.03;;
6693;SDS011;3384;42.628;23.380;2023-04-25T10:22:18;5.00;;;4.53;;
6693;SDS011;3384;42.628;23.380;2023-04-25T10:24:46;5.00;;;4.80;;
6693;SDS011;3384;42.628;23.380;2023-04-25T10:27:13;1.73;;;1.63;;
6693;SDS011;3384;42.628;23.380;2023-04-25T10:29:42;1.63;;;1.53;;
6693;SDS011;3384;42.628;23.380;2023-04-25T10:32:09;6.70;;;0.63;;
6693;SDS011;3384;42.628;23.380;2023-04-25T10:34:40;0.47;;;0.40;;
6693;SDS011;3384;42.628;23.380;2023-04-25T10:37:09;0.50;;;0.50;;
6693;SDS011;3384;42.628;23.380;2023-04-25T10:39:39;0.60;;;0.50;;
6693;SDS011;3384;42.628;23.380;2023-04-25T10:42:06;0.67;;;0.67;;
6693;SDS011;3384;42.628;23.380;2023-04-25T10:44:33;0.47;;;0.40;;
6693;SDS011;3384;42.628;23.380;2023-04-25T10:47:01;3.07;;;0.87;;
6693;SDS011;3384;42.628;23.380;2023-04-25T10:49:32;0.50;;;0.47;;
6693;SDS011;3384;42.628;23.380;2023-04-25T10:52:11;0.70;;;0.70;;
6693;SDS011;3384;42.628;23.380;2023-04-25T10:54:40;0.63;;;0.63;;
6693;SDS011;3384;42.628;23.380;2023-04-25T10:57:06;1.40;;;1.20;;
6693;SDS011;3384;42.628;23.380;2023-04-25T10:59:33;2.67;;;2.00;;
6693;SDS011;3384;42.628;23.380;2023-04-25T11:02:01;3.10;;;2.90;;
6693;SDS011;3384;42.628;23.380;2023-04-25T11:04:37;2.33;;;2.23;;
6693;SDS011;3384;42.628;23.380;2023-04-25T11:07:06;2.73;;;1.97;;
6693;SDS011;3384;42.628;23.380;2023-04-25T11:09:34;2.90;;;2.23;;
6693;SDS011;3384;42.628;23.380;2023-04-25T11:12:00;2.70;;;2.60;;
6693;SDS011;3384;42.628;23.380;2023-04-25T11:14:27;1.80;;;1.70;;
6693;SDS011;3384;42.628;23.380;2023-04-25T11:16:54;2.90;;;1.70;;
6693;SDS011;3384;42.628;23.380;2023-04-25T11:19:23;2.00;;;1.40;;
6693;SDS011;3384;42.628;23.380;2023-04-25T11:21:50;1.83;;;1.73;;
6693;SDS011;3384;42.628;23.380;2023-04-25T11:24:17;0.80;;;0.80;;
6693;SDS011;3384;42.628;23.380;2023-04-25T11:26:45;1.67;;;1.57;;
6693;SDS011;3384;42.628;23.380;2023-04-25T11:29:13;3.40;;;1.23;;
6693;SDS011;3384;42.628;23.380;2023-04-25T11:31:42;0.80;;;0.80;;
6693;SDS011;3384;42.628;23.380;2023-04-25T11:34:09;0.70;;;0.70;;
6693;SDS011;3384;42.628;23.380;2023-04-25T11:36:37;1.50;;;1.40;;
6693;SDS011;3384;42.628;23.380;2023-04-25T11:39:04;8.30;;;3.83;;
6693;SDS011;3384;42.628;23.380;2023-04-25T11:41:31;5.70;;;3.07;;
6693;SDS011;3384;42.628;23.380;2023-04-25T11:43:57;2.90;;;2.77;;
6693;SDS011;3384;42.628;23.380;2023-04-25T11:46:25;2.50;;;2.40;;
6693;SDS011;3384;42.628;23.380;2023-04-25T11:48:51;1.43;;;1.43;;
6693;SDS011;3384;42.628;23.380;2023-04-25T11:51:22;9.57;;;3.43;;
6693;SDS011;3384;42.628;23.380;2023-04-25T11:53:50;3.10;;;2.80;;
6693;SDS011;3384;42.628;23.380;2023-04-25T11:56:17;3.53;;;2.40;;
6693;SDS011;3384;42.628;23.380;2023-04-25T11:58:59;2.83;;;2.60;;
6693;SDS011;3384;42.628;23.380;2023-04-25T12:01:26;0.87;;;0.87;;
6693;SDS011;3384;42.628;23.380;2023-04-25T12:03:53;6.30;;;0.90;;
6693;SDS011;3384;42.628;23.380;2023-04-25T12:06:20;0.53;;;0.53;;
6693;SDS011;3384;42.628;23.380;2023-04-25T12:09:00;3.67;;;0.60;;
6693;SDS011;3384;42.628;23.380;2023-04-25T12:11:26;3.13;;;0.60;;
6693;SDS011;3384;42.628;23.380;2023-04-25T12:13:53;0.60;;;0.60;;
6693;SDS011;3384;42.628;23.380;2023-04-25T12:16:20;1.80;;;0.70;;
6693;SDS011;3384;42.628;23.380;2023-04-25T12:18:46;0.80;;;0.80;;
6693;SDS011;3384;42.628;23.380;2023-04-25T12:21:13;1.37;;;1.33;;
6693;SDS011;3384;42.628;23.380;2023-04-25T12:23:40;1.30;;;1.20;;
6693;SDS011;3384;42.628;23.380;2023-04-25T12:26:08;1.33;;;1.23;;
6693;SDS011;3384;42.628;23.380;2023-04-25T12:28:35;0.80;;;0.80;;
6693;SDS011;3384;42.628;23.380;2023-04-25T12:31:02;6.27;;;1.03;;
6693;SDS011;3384;42.628;23.380;2023-04-25T12:33:29;0.80;;;0.80;;
6693;SDS011;3384;42.628;23.380;2023-04-25T12:35:57;1.10;;;0.97;;
6693;SDS011;3384;42.628;23.380;2023-04-25T12:38:24;1.00;;;1.00;;
6693;SDS011;3384;42.628;23.380;2023-04-25T12:40:51;9.37;;;1.20;;
6693;SDS011;3384;42.628;23.380;2023-04-25T12:43:26;0.77;;;0.77;;
6693;SDS011;3384;42.628;23.380;2023-04-25T12:45:53;0.80;;;0.80;;
6693;SDS011;3384;42.628;23.380;2023-04-25T12:48:20;1.67;;;1.57;;
6693;SDS011;3384;42.628;23.380;2023-04-25T12:50:49;5.77;;;0.73;;
6693;SDS011;3384;42.628;23.380;2023-04-25T12:53:16;1.97;;;0.60;;
6693;SDS011;3384;42.628;23.380;2023-04-25T12:55:43;1.17;;;0.50;;
6693;SDS011;3384;42.628;23.380;2023-04-25T12:58:11;1.60;;;0.90;;
6693;SDS011;3384;42.628;23.380;2023-04-25T13:00:40;0.50;;;0.40;;
6693;SDS011;3384;42.628;23.380;2023-04-25T13:03:08;2.13;;;0.73;;
6693;SDS011;3384;42.628;23.380;2023-04-25T13:05:36;0.50;;;0.50;;
6693;SDS011;3384;42.628;23.380;2023-04-25T13:08:03;0.83;;;0.40;;
6693;SDS011;3384;42.628;23.380;2023-04-25T13:10:32;0.47;;;0.43;;
6693;SDS011;3384;42.628;23.380;2023-04-25T13:13:01;0.77;;;0.73;;
6693;SDS011;3384;42.628;23.380;2023-04-25T13:15:28;0.47;;;0.40;;
6693;SDS011;3384;42.628;23.380;2023-04-25T13:17:56;0.93;;;0.70;;
6693;SDS011;3384;42.628;23.380;2023-04-25T13:20:23;0.50;;;0.50;;
6693;SDS011;3384;42.628;23.380;2023-04-25T13:22:50;0.87;;;0.87;;
6693;SDS011;3384;42.628;23.380;2023-04-25T13:25:16;0.53;;;0.53;;
6693;SDS011;3384;42.628;23.380;2023-04-25T13:27:43;1.00;;;0.63;;
6693;SDS011;3384;42.628;23.380;2023-04-25T13:30:11;0.80;;;0.80;;
6693;SDS011;3384;42.628;23.380;2023-04-25T13:32:38;0.67;;;0.53;;
6693;SDS011;3384;42.628;23.380;2023-04-25T13:35:08;0.70;;;0.70;;
6693;SDS011;3384;42.628;23.380;2023-04-25T13:37:35;0.87;;;0.87;;
6693;SDS011;3384;42.628;23.380;2023-04-25T13:40:02;0.70;;;0.70;;
6693;SDS011;3384;42.628;23.380;2023-04-25T13:42:30;1.10;;;1.10;;
6693;SDS011;3384;42.628;23.380;2023-04-25T13:44:56;1.47;;;1.37;;
6693;SDS011;3384;42.628;23.380;2023-04-25T13:47:23;5.03;;;1.10;;
6693;SDS011;3384;42.628;23.380;2023-04-25T13:49:50;1.00;;;1.00;;
6693;SDS011;3384;42.628;23.380;2023-04-25T13:52:20;1.80;;;0.70;;
6693;SDS011;3384;42.628;23.380;2023-04-25T13:54:49;1.57;;;1.00;;
6693;SDS011;3384;42.628;23.380;2023-04-25T13:57:15;1.70;;;0.97;;
6693;SDS011;3384;42.628;23.380;2023-04-25T13:59:43;1.00;;;0.80;;
6693;SDS011;3384;42.628;23.380;2023-04-25T14:02:11;1.30;;;1.20;;
6693;SDS011;3384;42.628;23.380;2023-04-25T14:04:38;0.70;;;0.70;;
6693;SDS011;3384;42.628;23.380;2023-04-25T14:07:04;0.73;;;0.73;;
6693;SDS011;3384;42.628;23.380;2023-04-25T14:09:33;1.07;;;0.60;;
6693;SDS011;3384;42.628;23.380;2023-04-25T14:11:59;0.60;;;0.60;;
6693;SDS011;3384;42.628;23.380;2023-04-25T14:14:27;0.73;;;0.73;;
6693;SDS011;3384;42.628;23.380;2023-04-25T14:16:55;0.87;;;0.87;;
6693;SDS011;3384;42.628;23.380;2023-04-25T14:19:22;2.90;;;2.80;;
6693;SDS011;3384;42.628;23.380;2023-04-25T14:21:49;0.80;;;0.80;;
6693;SDS011;3384;42.628;23.380;2023-04-25T14:24:16;3.67;;;1.10;;
6693;SDS011;3384;42.628;23.380;2023-04-25T14:26:47;4.30;;;1.70;;
6693;SDS011;3384;42.628;23.380;2023-04-25T14:29:13;1.73;;;1.63;;
6693;SDS011;3384;42.628;23.380;2023-04-25T14:31:40;3.87;;;3.63;;
6693;SDS011;3384;42.628;23.380;2023-04-25T14:34:07;5.90;;;1.40;;
6693;SDS011;3384;42.628;23.380;2023-04-25T14:36:34;5.13;;;1.40;;
6693;SDS011;3384;42.628;23.380;2023-04-25T14:39:01;1.90;;;1.70;;
6693;SDS011;3384;42.628;23.380;2023-04-25T14:41:30;3.23;;;1.77;;
6693;SDS011;3384;42.628;23.380;2023-04-25T14:44:00;1.53;;;1.43;;
6693;SDS011;3384;42.628;23.380;2023-04-25T14:46:27;5.50;;;2.43;;
6693;SDS011;3384;42.628;23.380;2023-04-25T14:48:54;2.07;;;1.73;;
6693;SDS011;3384;42.628;23.380;2023-04-25T14:51:21;1.57;;;1.47;;
6693;SDS011;3384;42.628;23.380;2023-04-25T14:53:47;1.60;;;1.50;;
6693;SDS011;3384;42.628;23.380;2023-04-25T14:56:15;5.43;;;2.00;;
6693;SDS011;3384;42.628;23.380;2023-04-25T14:58:41;1.30;;;1.30;;